EZY742 EGJJ-EGKK
Flight info
| Callsign | EZY742 |
|---|---|
| Flight time | 0h 41m |
| Altitude | 23000 |
| Route | ORIST L982 VASUX |
| Aircraft | A20N/M-SDE2E3FGHIRWXY/LB1 |
Departure
| Time | 2026-05-04 17:50 |
|---|---|
| Airport | Jersey Airport (EGJJ) |
Arrival
| Time | 2026-05-04 18:32 |
|---|---|
| Airport | London Gatwick Airport (EGKK) |
| Time | Latitude | Longitude | Altitude | Speed | Heading |
|---|---|---|---|---|---|
| 2026-05-04 17:35 | 49.20557 | -2.19752 | 284 ft | 0 kts | 175° |
| 2026-05-04 17:43 | 49.20572 | -2.19754 | 287 ft | 3 kts | 175° |
| 2026-05-04 17:44 | 49.20590 | -2.19757 | 289 ft | 3 kts | 192° |
| 2026-05-04 17:44 | 49.20607 | -2.19748 | 287 ft | 3 kts | 225° |
| 2026-05-04 17:44 | 49.20615 | -2.19734 | 289 ft | 0 kts | 259° |
| 2026-05-04 17:47 | 49.20614 | -2.19742 | 285 ft | 4 kts | 259° |
| 2026-05-04 17:47 | 49.20610 | -2.19787 | 288 ft | 8 kts | 264° |
| 2026-05-04 17:47 | 49.20595 | -2.19902 | 283 ft | 10 kts | 236° |
| 2026-05-04 17:47 | 49.20534 | -2.19929 | 283 ft | 9 kts | 195° |
| 2026-05-04 17:48 | 49.20519 | -2.19985 | 283 ft | 6 kts | 275° |
| 2026-05-04 17:48 | 49.20534 | -2.20075 | 288 ft | 11 kts | 287° |
| 2026-05-04 17:48 | 49.20552 | -2.20165 | 286 ft | 15 kts | 287° |
| 2026-05-04 17:48 | 49.20596 | -2.20390 | 286 ft | 17 kts | 286° |
| 2026-05-04 17:49 | 49.20625 | -2.20570 | 283 ft | 15 kts | 275° |
| 2026-05-04 17:49 | 49.20647 | -2.20685 | 283 ft | 9 kts | 311° |
| 2026-05-04 17:49 | 49.20692 | -2.20693 | 282 ft | 10 kts | 18° |
| 2026-05-04 17:49 | 49.20707 | -2.20640 | 286 ft | 7 kts | 79° |
| 2026-05-04 17:50 | 49.20708 | -2.20630 | 284 ft | 0 kts | 81° |
| 2026-05-04 17:50 | 49.20732 | -2.20351 | 282 ft | 64 kts | 82° |
| 2026-05-04 17:50 | 49.20827 | -2.19258 | 314 ft | 138 kts | 80° |
| 2026-05-04 17:50 | 49.20935 | -2.17716 | 946 ft | 149 kts | 80° |
| 2026-05-04 17:51 | 49.21071 | -2.16125 | 1767 ft | 160 kts | 80° |
| 2026-05-04 17:51 | 49.21237 | -2.14255 | 2112 ft | 194 kts | 81° |
| 2026-05-04 17:51 | 49.21424 | -2.12068 | 2681 ft | 216 kts | 81° |
| 2026-05-04 17:51 | 49.21613 | -2.09778 | 3649 ft | 218 kts | 81° |
| 2026-05-04 17:52 | 49.21876 | -2.07487 | 4442 ft | 220 kts | 70° |
| 2026-05-04 17:52 | 49.22669 | -2.05508 | 4910 ft | 221 kts | 40° |
| 2026-05-04 17:52 | 49.24075 | -2.04527 | 5492 ft | 229 kts | 9° |
| 2026-05-04 17:52 | 49.25676 | -2.04314 | 6374 ft | 232 kts | 2° |
| 2026-05-04 17:53 | 49.27318 | -2.04251 | 7065 ft | 245 kts | 2° |
| 2026-05-04 17:53 | 49.29108 | -2.04193 | 7467 ft | 267 kts | 2° |
| 2026-05-04 17:53 | 49.30948 | -2.04121 | 8408 ft | 265 kts | 2° |
| 2026-05-04 17:53 | 49.32757 | -2.04042 | 9592 ft | 256 kts | 2° |
| 2026-05-04 17:54 | 49.34535 | -2.03959 | 10518 ft | 255 kts | 3° |
| 2026-05-04 17:54 | 49.36313 | -2.03870 | 11340 ft | 258 kts | 3° |
| 2026-05-04 17:54 | 49.38176 | -2.03773 | 11748 ft | 280 kts | 3° |
| 2026-05-04 17:54 | 49.40211 | -2.03665 | 12069 ft | 305 kts | 3° |
| 2026-05-04 17:55 | 49.42413 | -2.03548 | 12391 ft | 329 kts | 3° |
| 2026-05-04 17:55 | 49.44778 | -2.03424 | 12728 ft | 351 kts | 3° |
| 2026-05-04 17:55 | 49.47231 | -2.03296 | 13046 ft | 371 kts | 3° |
| 2026-05-04 17:55 | 49.49943 | -2.03154 | 13380 ft | 391 kts | 3° |
| 2026-05-04 17:56 | 49.52730 | -2.03009 | 13665 ft | 409 kts | 3° |
| 2026-05-04 17:56 | 49.55625 | -2.02857 | 14105 ft | 421 kts | 3° |
| 2026-05-04 17:56 | 49.58568 | -2.02705 | 14795 ft | 424 kts | 3° |
| 2026-05-04 17:56 | 49.61527 | -2.02551 | 15527 ft | 427 kts | 3° |
| 2026-05-04 17:57 | 49.64510 | -2.02395 | 16243 ft | 430 kts | 2° |
| 2026-05-04 17:57 | 49.67516 | -2.02237 | 16948 ft | 434 kts | 2° |
| 2026-05-04 17:57 | 49.70545 | -2.02077 | 17632 ft | 438 kts | 2° |
| 2026-05-04 17:57 | 49.73601 | -2.01916 | 18301 ft | 441 kts | 2° |
| 2026-05-04 17:58 | 49.76668 | -2.01742 | 18970 ft | 442 kts | 4° |
| 2026-05-04 17:58 | 49.79691 | -2.00844 | 19455 ft | 446 kts | 20° |
| 2026-05-04 17:58 | 49.82528 | -1.98846 | 19956 ft | 450 kts | 28° |
| 2026-05-04 17:58 | 49.85305 | -1.96560 | 20468 ft | 454 kts | 30° |
| 2026-05-04 17:59 | 49.88104 | -1.94231 | 20978 ft | 459 kts | 30° |
| 2026-05-04 17:59 | 49.90935 | -1.91898 | 21471 ft | 463 kts | 30° |
| 2026-05-04 17:59 | 49.96632 | -1.87254 | 22652 ft | 463 kts | 30° |
| 2026-05-04 18:00 | 49.99477 | -1.84947 | 22960 ft | 460 kts | 30° |
| 2026-05-04 18:00 | 50.02321 | -1.82664 | 23003 ft | 461 kts | 29° |
| 2026-05-04 18:00 | 50.05182 | -1.80391 | 22994 ft | 462 kts | 29° |
| 2026-05-04 18:00 | 50.08059 | -1.78116 | 22996 ft | 463 kts | 29° |
| 2026-05-04 18:01 | 50.10908 | -1.75794 | 22990 ft | 462 kts | 33° |
| 2026-05-04 18:01 | 50.13549 | -1.72968 | 22995 ft | 460 kts | 39° |
| 2026-05-04 18:01 | 50.16089 | -1.69945 | 22993 ft | 459 kts | 40° |
| 2026-05-04 18:02 | 50.21032 | -1.63642 | 22992 ft | 458 kts | 42° |
| 2026-05-04 18:02 | 50.23475 | -1.60440 | 22996 ft | 458 kts | 42° |
| 2026-05-04 18:02 | 50.25917 | -1.57227 | 22996 ft | 458 kts | 42° |
| 2026-05-04 18:02 | 50.28362 | -1.54029 | 22996 ft | 458 kts | 42° |
| 2026-05-04 18:03 | 50.30813 | -1.50839 | 22997 ft | 458 kts | 42° |
| 2026-05-04 18:03 | 50.33237 | -1.47688 | 22996 ft | 458 kts | 42° |
| 2026-05-04 18:03 | 50.35688 | -1.44501 | 22996 ft | 458 kts | 42° |
| 2026-05-04 18:03 | 50.38138 | -1.41313 | 22996 ft | 458 kts | 42° |
| 2026-05-04 18:04 | 50.40588 | -1.38122 | 22984 ft | 458 kts | 41° |
| 2026-05-04 18:04 | 50.43044 | -1.34918 | 22900 ft | 463 kts | 41° |
| 2026-05-04 18:04 | 50.47985 | -1.28462 | 21282 ft | 460 kts | 41° |
| 2026-05-04 18:05 | 50.50436 | -1.25254 | 20495 ft | 456 kts | 41° |
| 2026-05-04 18:05 | 50.52860 | -1.22077 | 19704 ft | 452 kts | 41° |
| 2026-05-04 18:05 | 50.55239 | -1.18954 | 19003 ft | 438 kts | 41° |
| 2026-05-04 18:05 | 50.57523 | -1.15952 | 18615 ft | 416 kts | 41° |
| 2026-05-04 18:06 | 50.61753 | -1.10381 | 17434 ft | 388 kts | 41° |
| 2026-05-04 18:06 | 50.63807 | -1.07669 | 16572 ft | 383 kts | 40° |
| 2026-05-04 18:06 | 50.65778 | -1.04889 | 15625 ft | 379 kts | 46° |
| 2026-05-04 18:07 | 50.67522 | -1.01786 | 14968 ft | 373 kts | 51° |
| 2026-05-04 18:07 | 50.69124 | -0.98720 | 14765 ft | 352 kts | 51° |
| 2026-05-04 18:07 | 50.70633 | -0.95805 | 14523 ft | 334 kts | 51° |
| 2026-05-04 18:07 | 50.72066 | -0.93031 | 14276 ft | 319 kts | 51° |
| 2026-05-04 18:08 | 50.73449 | -0.90355 | 13863 ft | 310 kts | 51° |
| 2026-05-04 18:08 | 50.74790 | -0.87757 | 13533 ft | 299 kts | 51° |
| 2026-05-04 18:08 | 50.76074 | -0.85272 | 13337 ft | 284 kts | 51° |
| 2026-05-04 18:08 | 50.77298 | -0.82901 | 13078 ft | 274 kts | 51° |
| 2026-05-04 18:09 | 50.79669 | -0.78302 | 12224 ft | 267 kts | 51° |
| 2026-05-04 18:09 | 50.81372 | -0.73221 | 11323 ft | 262 kts | 77° |
| 2026-05-04 18:10 | 50.81745 | -0.70408 | 10931 ft | 261 kts | 80° |
| 2026-05-04 18:10 | 50.82066 | -0.67596 | 10620 ft | 259 kts | 80° |
| 2026-05-04 18:10 | 50.82382 | -0.64797 | 10322 ft | 257 kts | 81° |
| 2026-05-04 18:10 | 50.82698 | -0.62015 | 10023 ft | 256 kts | 80° |
| 2026-05-04 18:11 | 50.83015 | -0.59256 | 9679 ft | 255 kts | 80° |
| 2026-05-04 18:11 | 50.83331 | -0.56508 | 9341 ft | 253 kts | 80° |
| 2026-05-04 18:11 | 50.83642 | -0.53809 | 9005 ft | 252 kts | 80° |
| 2026-05-04 18:11 | 50.83955 | -0.51091 | 8667 ft | 251 kts | 80° |
| 2026-05-04 18:12 | 50.84267 | -0.48383 | 8334 ft | 250 kts | 80° |
| 2026-05-04 18:12 | 50.84577 | -0.45686 | 8010 ft | 249 kts | 80° |
| 2026-05-04 18:12 | 50.84884 | -0.43003 | 7688 ft | 247 kts | 80° |
| 2026-05-04 18:12 | 50.85190 | -0.40334 | 7376 ft | 246 kts | 79° |
| 2026-05-04 18:13 | 50.85493 | -0.37678 | 7080 ft | 244 kts | 79° |
| 2026-05-04 18:13 | 50.85794 | -0.35041 | 6997 ft | 243 kts | 79° |
| 2026-05-04 18:13 | 50.86395 | -0.29754 | 6993 ft | 244 kts | 79° |
| 2026-05-04 18:14 | 50.86695 | -0.27107 | 6993 ft | 244 kts | 79° |
| 2026-05-04 18:14 | 50.86995 | -0.24460 | 6993 ft | 244 kts | 79° |
| 2026-05-04 18:14 | 50.87294 | -0.21810 | 6993 ft | 244 kts | 80° |
| 2026-05-04 18:15 | 50.87890 | -0.16511 | 6994 ft | 244 kts | 80° |
| 2026-05-04 18:15 | 50.88483 | -0.11220 | 6995 ft | 244 kts | 80° |
| 2026-05-04 18:15 | 50.88865 | -0.08600 | 6993 ft | 244 kts | 70° |
| 2026-05-04 18:16 | 50.89684 | -0.06268 | 6997 ft | 243 kts | 49° |
| 2026-05-04 18:16 | 50.90992 | -0.04592 | 6997 ft | 243 kts | 26° |
| 2026-05-04 18:16 | 50.92604 | -0.03846 | 6997 ft | 243 kts | 4° |
| 2026-05-04 18:17 | 50.95754 | -0.05425 | 6997 ft | 244 kts | 319° |
| 2026-05-04 18:17 | 50.96810 | -0.07506 | 6998 ft | 244 kts | 296° |
| 2026-05-04 18:17 | 50.97716 | -0.12694 | 6998 ft | 245 kts | 281° |
| 2026-05-04 18:18 | 50.97932 | -0.14455 | 6994 ft | 246 kts | 281° |
| 2026-05-04 18:18 | 50.98392 | -0.17969 | 6995 ft | 246 kts | 286° |
| 2026-05-04 18:18 | 50.99127 | -0.20390 | 6993 ft | 244 kts | 310° |
| 2026-05-04 18:18 | 51.00474 | -0.21958 | 6996 ft | 242 kts | 341° |
| 2026-05-04 18:19 | 51.03187 | -0.21566 | 6995 ft | 241 kts | 33° |
| 2026-05-04 18:19 | 51.04321 | -0.19648 | 6995 ft | 241 kts | 64° |
| 2026-05-04 18:19 | 51.04665 | -0.17080 | 6993 ft | 241 kts | 95° |
| 2026-05-04 18:20 | 51.04144 | -0.14616 | 6998 ft | 241 kts | 122° |
| 2026-05-04 18:20 | 51.03136 | -0.12476 | 6996 ft | 243 kts | 130° |
| 2026-05-04 18:20 | 51.02033 | -0.10428 | 6990 ft | 244 kts | 131° |
| 2026-05-04 18:20 | 51.00917 | -0.08390 | 6699 ft | 245 kts | 131° |
| 2026-05-04 18:21 | 50.99678 | -0.06551 | 6377 ft | 244 kts | 150° |
| 2026-05-04 18:21 | 50.98058 | -0.05851 | 6016 ft | 244 kts | 181° |
| 2026-05-04 18:21 | 50.96444 | -0.06563 | 5649 ft | 243 kts | 212° |
| 2026-05-04 18:21 | 50.95290 | -0.08483 | 5276 ft | 243 kts | 244° |
| 2026-05-04 18:22 | 50.94927 | -0.11052 | 4927 ft | 240 kts | 275° |
| 2026-05-04 18:22 | 50.95274 | -0.13626 | 4608 ft | 238 kts | 289° |
| 2026-05-04 18:22 | 50.95804 | -0.16099 | 4281 ft | 237 kts | 290° |
| 2026-05-04 18:22 | 50.96353 | -0.18550 | 4036 ft | 234 kts | 291° |
| 2026-05-04 18:23 | 50.96897 | -0.20988 | 3994 ft | 235 kts | 291° |
| 2026-05-04 18:23 | 50.97442 | -0.23440 | 3996 ft | 236 kts | 291° |
| 2026-05-04 18:23 | 50.97985 | -0.25893 | 3995 ft | 236 kts | 291° |
| 2026-05-04 18:23 | 50.98531 | -0.28351 | 3996 ft | 236 kts | 291° |
| 2026-05-04 18:24 | 50.99077 | -0.30810 | 3961 ft | 236 kts | 291° |
| 2026-05-04 18:24 | 50.99625 | -0.33275 | 3643 ft | 236 kts | 291° |
| 2026-05-04 18:24 | 51.00164 | -0.35731 | 3386 ft | 235 kts | 291° |
| 2026-05-04 18:24 | 51.00701 | -0.38177 | 3106 ft | 234 kts | 291° |
| 2026-05-04 18:25 | 51.01226 | -0.40599 | 2998 ft | 232 kts | 291° |
| 2026-05-04 18:25 | 51.01747 | -0.43034 | 2999 ft | 234 kts | 291° |
| 2026-05-04 18:25 | 51.02270 | -0.45485 | 2996 ft | 235 kts | 291° |
| 2026-05-04 18:25 | 51.02809 | -0.47936 | 2998 ft | 234 kts | 295° |
| 2026-05-04 18:26 | 51.03720 | -0.49933 | 2997 ft | 220 kts | 325° |
| 2026-05-04 18:26 | 51.04993 | -0.51062 | 3018 ft | 200 kts | 339° |
| 2026-05-04 18:26 | 51.06220 | -0.51863 | 3011 ft | 185 kts | 342° |
| 2026-05-04 18:26 | 51.07457 | -0.52003 | 2997 ft | 179 kts | 19° |
| 2026-05-04 18:27 | 51.08479 | -0.50933 | 3003 ft | 178 kts | 45° |
| 2026-05-04 18:27 | 51.09304 | -0.49455 | 3001 ft | 179 kts | 50° |
| 2026-05-04 18:27 | 51.10091 | -0.47912 | 3005 ft | 180 kts | 51° |
| 2026-05-04 18:27 | 51.10804 | -0.46332 | 2983 ft | 168 kts | 62° |
| 2026-05-04 18:28 | 51.11211 | -0.44643 | 3004 ft | 161 kts | 73° |
| 2026-05-04 18:28 | 51.11479 | -0.42913 | 2996 ft | 161 kts | 75° |
| 2026-05-04 18:28 | 51.11725 | -0.41172 | 2909 ft | 162 kts | 76° |
| 2026-05-04 18:28 | 51.11970 | -0.39438 | 2689 ft | 158 kts | 75° |
| 2026-05-04 18:29 | 51.12208 | -0.37744 | 2431 ft | 156 kts | 75° |
| 2026-05-04 18:29 | 51.12445 | -0.36049 | 2207 ft | 158 kts | 76° |
| 2026-05-04 18:29 | 51.12682 | -0.34347 | 1989 ft | 157 kts | 75° |
| 2026-05-04 18:29 | 51.12911 | -0.32705 | 1780 ft | 146 kts | 76° |
| 2026-05-04 18:30 | 51.13324 | -0.29745 | 1409 ft | 132 kts | 76° |
| 2026-05-04 18:30 | 51.13524 | -0.28317 | 1219 ft | 132 kts | 76° |
| 2026-05-04 18:30 | 51.13718 | -0.26890 | 1037 ft | 132 kts | 76° |
| 2026-05-04 18:31 | 51.13926 | -0.25468 | 842 ft | 132 kts | 75° |
| 2026-05-04 18:31 | 51.14136 | -0.24061 | 689 ft | 131 kts | 76° |
| 2026-05-04 18:31 | 51.14310 | -0.22640 | 523 ft | 133 kts | 77° |
| 2026-05-04 18:31 | 51.14507 | -0.21214 | 333 ft | 131 kts | 75° |
| 2026-05-04 18:32 | 51.14706 | -0.19851 | 220 ft | 119 kts | 77° |
| 2026-05-04 18:32 | 51.14850 | -0.18800 | 209 ft | 60 kts | 77° |
| 2026-05-04 18:32 | 51.15014 | -0.18376 | 218 ft | 18 kts | 52° |
| 2026-05-04 18:32 | 51.15083 | -0.18237 | 213 ft | 16 kts | 51° |
| 2026-05-04 18:33 | 51.15134 | -0.18197 | 214 ft | 0 kts | 350° |
| 2026-05-04 18:33 | 51.15136 | -0.18198 | 214 ft | 0 kts | 350° |
| 2026-05-04 18:33 | 51.15140 | -0.18199 | 213 ft | 1 kts | 350° |
| 2026-05-04 18:33 | 51.15141 | -0.18199 | 213 ft | 0 kts | 350° |
| 2026-05-04 18:34 | 51.15159 | -0.18204 | 210 ft | 7 kts | 351° |
| 2026-05-04 18:34 | 51.15215 | -0.18222 | 208 ft | 10 kts | 348° |
| 2026-05-04 18:34 | 51.15291 | -0.18248 | 211 ft | 13 kts | 348° |
| 2026-05-04 18:35 | 51.15387 | -0.18281 | 212 ft | 15 kts | 346° |
| 2026-05-04 18:35 | 51.15497 | -0.18319 | 208 ft | 17 kts | 347° |
| 2026-05-04 18:35 | 51.15611 | -0.18357 | 214 ft | 13 kts | 356° |
| 2026-05-04 18:35 | 51.15651 | -0.18307 | 212 ft | 6 kts | 70° |
| 2026-05-04 18:36 | 51.15664 | -0.18222 | 215 ft | 9 kts | 77° |
| 2026-05-04 18:36 | 51.15684 | -0.18083 | 214 ft | 14 kts | 65° |
| 2026-05-04 18:36 | 51.15749 | -0.18053 | 210 ft | 12 kts | 347° |
| 2026-05-04 18:36 | 51.15853 | -0.18086 | 208 ft | 18 kts | 348° |
| 2026-05-04 18:37 | 51.15952 | -0.18123 | 213 ft | 14 kts | 347° |
| 2026-05-04 18:37 | 51.16028 | -0.18149 | 211 ft | 4 kts | 351° |
| 2026-05-04 18:37 | 51.16050 | -0.18122 | 212 ft | 4 kts | 60° |
| 2026-05-04 18:37 | 51.16058 | -0.18080 | 210 ft | 3 kts | 78° |
| 2026-05-04 18:38 | 51.16063 | -0.18042 | 211 ft | 3 kts | 80° |
| 2026-05-04 18:38 | 51.16065 | -0.18024 | 210 ft | 0 kts | 78° |